YCBB

Details ICAO YCBB
Name Coonabarabran
Region Australia
Timezone Australia/Sydney (UTC+11.0)
Plans Departing 1
Arriving 1
Stats Elevation 2,117 ft / 645 m (AMSL)
Location -31.331643° 149.267350°
Runways 2
Magnetic Variation 11.029° E
Sunrise 2017-12-13 18:53:56 UTC / 2017-12-14 05:53:56 Local
Sunset 2017-12-14 09:03:43 UTC / 2017-12-14 20:03:43 Local
Advertisement - Login to hide

Runways

ID Width Length Bearing (true) Bearing (mag) Surface Threshold Offset Overrun Length
01 308 ft / 94 m 2,528 ft / 771 m 29.08° 18.05° Grass 0 ft / 0 m 0 ft / 0 m
11 98 ft / 30 m 4,984 ft / 1,519 m 123.00° 111.97° Asphalt 0 ft / 0 m 0 ft / 0 m
19 308 ft / 94 m 2,528 ft / 771 m 209.07° 198.04° Grass 0 ft / 0 m 0 ft / 0 m
29 98 ft / 30 m 4,984 ft / 1,519 m 303.00° 291.97° Asphalt 0 ft / 0 m 0 ft / 0 m

Map

Weather


0- 5 10 15 20 25 30 35+ Temperature / ° C

Clouds and Precipitation
Forecast for 2017-12-13 18:00 UTC. Updated 2 hours ago

Ground ~20,000 ft ~40,000 ft Winds

METAR

YCBB 131500Z AUTO 35007KT //// // ////// 25/06 Q1013

TAF

Not found

Frequencies

Unicom 126.70 MHz CTAF
Warning: Do not use this data for real-world aviation or navigation. No guarantee of current accuracy is given.